createdAt,value
2022-08-22T00:02:43.756Z,0.40
2022-08-22T00:02:48.148Z,1.30
2022-08-22T04:03:08.786Z,0.30
2022-08-22T04:05:55.857Z,0.50
2022-08-22T04:08:56.306Z,0.40
2022-08-22T04:14:26.863Z,0.70
2022-08-22T04:17:02.122Z,0.50
2022-08-22T04:20:35.510Z,1.20
2022-08-22T04:23:37.103Z,0.80
2022-08-22T04:26:21.361Z,0.60
2022-08-22T04:29:03.336Z,0.40
2022-08-22T04:31:56.905Z,0.50
2022-08-22T04:34:38.228Z,0.50
2022-08-22T04:41:49.632Z,0.50
2022-08-22T04:44:29.263Z,0.80
2022-08-22T05:05:14.121Z,0.90
2022-08-22T05:07:49.333Z,0.90
2022-08-22T05:37:50.398Z,1.20
2022-08-22T05:42:57.242Z,1.10
2022-08-22T05:45:28.193Z,1.10
2022-08-22T05:48:33.570Z,1.10
2022-08-22T05:55:32.893Z,1.30
2022-08-22T05:58:57.615Z,1.50
2022-08-22T06:04:37.219Z,1.20
2022-08-22T06:07:24.363Z,1.60
2022-08-22T06:10:28.706Z,1.30
2022-08-22T06:13:12.752Z,1.10
2022-08-22T06:16:11.181Z,1.50
2022-08-22T06:18:44.108Z,1.40
2022-08-22T06:21:22.633Z,1.30
2022-08-22T06:24:00.217Z,1.30
2022-08-22T06:26:38.602Z,1.20
2022-08-22T06:29:12.382Z,1.70
2022-08-22T06:31:49.721Z,2.00
2022-08-22T06:34:28.231Z,1.40
2022-08-22T06:36:59.473Z,1.90
2022-08-22T06:39:32.392Z,1.40
2022-08-22T06:42:01.823Z,1.70
2022-08-22T06:44:38.518Z,1.90
2022-08-22T06:47:10.923Z,1.80
2022-08-22T06:49:43.512Z,1.70
2022-08-22T06:52:19.371Z,1.20
2022-08-22T06:54:52.205Z,1.60
2022-08-22T06:57:44.731Z,2.60
2022-08-22T07:00:17.210Z,1.80
2022-08-22T07:02:51.736Z,1.60
2022-08-22T07:05:26.316Z,2.10
2022-08-22T07:07:56.519Z,1.60
2022-08-22T07:10:26.120Z,2.50
2022-08-22T07:12:57.308Z,2.00
2022-08-22T07:15:38.005Z,2.60
2022-08-22T07:18:32.426Z,1.50
2022-08-22T07:21:05.382Z,1.70
2022-08-22T07:28:02.256Z,2.20
2022-08-22T07:35:20.050Z,2.40
2022-08-22T07:38:09.267Z,2.10
2022-08-22T07:40:56.778Z,2.40
2022-08-22T07:43:31.814Z,2.90
2022-08-22T07:46:34.765Z,2.50
2022-08-22T07:49:15.628Z,2.50
2022-08-22T07:51:49.668Z,2.90
2022-08-22T07:54:34.358Z,1.80
2022-08-22T07:57:32.819Z,2.40
2022-08-22T08:00:16.339Z,2.20
2022-08-22T08:02:59.568Z,1.80
2022-08-22T08:05:38.590Z,2.60
2022-08-22T08:08:27.930Z,2.10
2022-08-22T08:11:03.481Z,2.80
2022-08-22T08:13:44.602Z,1.90
2022-08-22T08:16:27.191Z,2.00
2022-08-22T08:19:06.803Z,1.80
2022-08-22T08:21:55.005Z,2.20
2022-08-22T08:24:43.342Z,2.60
2022-08-22T08:27:50.263Z,1.90
2022-08-22T08:30:35.286Z,2.80
2022-08-22T08:33:25.516Z,2.30
2022-08-22T08:36:07.600Z,2.10
2022-08-22T08:38:46.571Z,2.50
2022-08-22T08:41:49.012Z,2.40
2022-08-22T08:44:51.903Z,2.50
2022-08-22T08:48:10.989Z,2.60
2022-08-22T08:50:47.631Z,2.50
2022-08-22T08:53:39.368Z,2.40
2022-08-22T08:56:59.929Z,2.40
2022-08-22T09:00:16.394Z,3.10
2022-08-22T09:03:11.151Z,2.20
2022-08-22T09:06:12.427Z,2.40
2022-08-22T09:08:59.290Z,2.70
2022-08-22T09:12:06.776Z,2.70
2022-08-22T09:15:01.080Z,3.00
2022-08-22T09:18:18.588Z,2.90
2022-08-22T09:21:00.270Z,2.80
2022-08-22T09:24:01.616Z,2.90
2022-08-22T09:27:08.751Z,3.50
2022-08-22T09:29:51.435Z,2.50
2022-08-22T09:32:53.572Z,3.30
2022-08-22T09:35:35.216Z,2.90
2022-08-22T09:38:25.423Z,2.80
2022-08-22T09:41:20.449Z,2.20
2022-08-22T09:44:28.908Z,3.60
2022-08-22T09:47:11.248Z,2.90
2022-08-22T09:50:16.977Z,2.60
2022-08-22T09:53:01.979Z,2.50
2022-08-22T09:55:36.275Z,3.10
2022-08-22T09:58:37.647Z,3.00
2022-08-22T10:01:32.938Z,2.90
2022-08-22T10:04:20.880Z,2.60
2022-08-22T10:07:28.315Z,3.00
2022-08-22T10:10:21.524Z,2.30
2022-08-22T10:13:11.553Z,3.00
2022-08-22T10:16:30.505Z,2.30
2022-08-22T10:19:38.944Z,2.70
2022-08-22T10:22:10.757Z,3.90
2022-08-22T10:24:59.008Z,3.40
2022-08-22T10:28:10.647Z,2.50
2022-08-22T10:31:22.407Z,2.80
2022-08-22T10:34:20.597Z,3.50
2022-08-22T10:37:00.915Z,2.00
2022-08-22T10:39:50.063Z,3.10
2022-08-22T10:42:30.169Z,2.70
2022-08-22T10:45:05.083Z,4.10
2022-08-22T10:47:54.730Z,3.10
2022-08-22T10:50:49.396Z,3.70
2022-08-22T10:53:34.807Z,3.20
2022-08-22T10:56:10.571Z,3.20
2022-08-22T10:58:49.785Z,2.70
2022-08-22T11:01:38.170Z,2.60
2022-08-22T11:04:44.952Z,2.40
2022-08-22T11:08:00.071Z,2.70
2022-08-22T11:11:06.615Z,2.50
2022-08-22T11:13:44.520Z,2.80
2022-08-22T11:16:18.320Z,3.10
2022-08-22T11:19:15.945Z,3.30
2022-08-22T11:21:58.308Z,3.10
2022-08-22T11:24:56.254Z,2.90
2022-08-22T11:27:40.790Z,2.60
2022-08-22T11:30:29.586Z,2.80
2022-08-22T11:33:47.150Z,3.70
2022-08-22T11:36:37.289Z,2.50
2022-08-22T11:39:18.532Z,2.70
2022-08-22T11:41:52.405Z,2.80
2022-08-22T11:44:50.786Z,3.00
2022-08-22T11:47:28.066Z,3.20
2022-08-22T11:50:03.624Z,3.00
2022-08-22T11:53:04.342Z,3.60
2022-08-22T11:55:58.749Z,2.90
2022-08-22T11:58:46.591Z,3.30
2022-08-22T12:01:23.061Z,3.50
2022-08-22T12:04:09.903Z,2.80
2022-08-22T12:07:01.546Z,3.00
2022-08-22T12:09:55.581Z,2.90
2022-08-22T12:12:29.320Z,3.10
2022-08-22T12:15:02.128Z,3.00
2022-08-22T12:18:09.540Z,3.60
2022-08-22T12:21:15.630Z,3.00
2022-08-22T12:24:06.115Z,3.20
2022-08-22T12:26:55.412Z,3.60
2022-08-22T12:29:48.051Z,3.60
2022-08-22T12:32:34.246Z,3.70
2022-08-22T12:35:43.616Z,3.10
2022-08-22T12:38:49.568Z,3.20
2022-08-22T12:42:04.111Z,2.70
2022-08-22T12:44:52.252Z,3.50
2022-08-22T12:48:03.497Z,2.80
2022-08-22T12:51:02.526Z,3.40
2022-08-22T12:54:12.062Z,3.30
2022-08-22T12:56:50.768Z,2.90
2022-08-22T12:59:25.815Z,3.10
2022-08-22T13:02:00.453Z,3.00
2022-08-22T13:04:34.988Z,2.40
2022-08-22T13:07:18.485Z,2.30
2022-08-22T13:12:34.090Z,2.90
2022-08-22T13:15:28.809Z,3.00
2022-08-22T13:18:18.857Z,2.40
2022-08-22T13:20:53.427Z,2.90
2022-08-22T13:23:45.516Z,2.20
2022-08-22T13:26:32.090Z,3.40
2022-08-22T13:29:25.142Z,3.10
2022-08-22T13:32:04.469Z,3.00
2022-08-22T13:34:49.825Z,2.80
2022-08-22T13:37:24.513Z,4.00
2022-08-22T13:39:59.469Z,3.60
2022-08-22T13:42:31.609Z,2.30
2022-08-22T13:45:06.147Z,2.60
2022-08-22T13:47:39.732Z,2.40
2022-08-22T13:50:15.068Z,3.90
2022-08-22T13:52:55.351Z,2.40
2022-08-22T13:55:29.996Z,2.70
2022-08-22T13:58:22.638Z,3.20
2022-08-22T14:01:15.303Z,3.20
2022-08-22T14:04:01.595Z,2.70
2022-08-22T14:06:48.261Z,2.60
2022-08-22T14:09:42.871Z,2.80
2022-08-22T14:12:24.320Z,2.20
2022-08-22T14:15:07.074Z,4.80
2022-08-22T14:17:48.908Z,2.40
2022-08-22T14:20:32.245Z,3.00
2022-08-22T14:23:24.129Z,2.30
2022-08-22T14:25:57.432Z,2.00
2022-08-22T14:28:31.993Z,2.10
2022-08-22T14:31:13.721Z,2.20
2022-08-22T14:33:57.571Z,2.40
2022-08-22T14:39:11.402Z,2.90
2022-08-22T14:41:56.211Z,2.30
2022-08-22T14:44:42.297Z,2.20
2022-08-22T14:47:40.358Z,2.20
2022-08-22T14:50:37.183Z,2.60
2022-08-22T14:53:24.963Z,2.50
2022-08-22T14:56:05.216Z,1.90
2022-08-22T14:58:49.987Z,2.70
2022-08-22T15:01:23.207Z,2.30
2022-08-22T15:04:05.746Z,2.00
2022-08-22T15:06:48.179Z,2.30
2022-08-22T15:09:41.499Z,2.30
2022-08-22T15:12:31.909Z,1.80
2022-08-22T15:15:06.270Z,2.30
2022-08-22T15:18:01.174Z,1.60
2022-08-22T15:20:36.303Z,2.80
2022-08-22T15:23:17.049Z,1.80
2022-08-22T15:25:56.480Z,2.30
2022-08-22T15:28:26.135Z,2.50
2022-08-22T15:30:58.747Z,4.60
2022-08-22T15:33:45.448Z,2.60
2022-08-22T15:36:22.628Z,2.30
2022-08-22T15:39:30.713Z,1.70
2022-08-22T15:42:02.871Z,2.10
2022-08-22T15:44:44.334Z,2.30
2022-08-22T15:47:27.682Z,1.80
2022-08-22T15:50:01.901Z,2.30
2022-08-22T15:52:59.153Z,2.30
2022-08-22T15:55:36.942Z,2.10
2022-08-22T15:58:22.580Z,2.30
2022-08-22T16:01:19.777Z,2.20
2022-08-22T16:04:14.517Z,2.40
2022-08-22T16:06:49.603Z,3.10
2022-08-22T16:09:50.594Z,2.20
2022-08-22T16:12:33.822Z,2.60
2022-08-22T16:15:05.902Z,2.20
2022-08-22T16:17:44.304Z,2.00
2022-08-22T16:20:20.199Z,2.20
2022-08-22T16:22:57.691Z,2.10
2022-08-22T16:25:45.671Z,2.80
2022-08-22T16:28:57.276Z,2.30
2022-08-22T16:31:57.029Z,2.50
2022-08-22T16:34:38.318Z,2.10
2022-08-22T16:37:18.463Z,1.80
2022-08-22T16:39:59.295Z,2.10
2022-08-22T16:42:58.143Z,2.00
2022-08-22T16:45:36.959Z,1.60
2022-08-22T16:48:32.794Z,1.70
2022-08-22T16:51:09.459Z,1.60
2022-08-22T16:53:38.712Z,1.70
2022-08-22T16:56:31.806Z,1.60
2022-08-22T16:59:22.597Z,2.30
2022-08-22T17:02:10.567Z,2.00
2022-08-22T17:05:03.615Z,1.80
2022-08-22T17:07:55.097Z,2.50
2022-08-22T17:10:37.229Z,2.20
2022-08-22T17:13:32.877Z,1.70
2022-08-22T17:16:08.321Z,1.50
2022-08-22T17:18:52.671Z,1.60
2022-08-22T17:21:51.855Z,1.60
2022-08-22T17:24:52.214Z,1.90
2022-08-22T17:27:38.846Z,1.50
2022-08-22T17:30:13.734Z,1.40
2022-08-22T17:33:05.235Z,3.00
2022-08-22T17:35:40.585Z,1.80
2022-08-22T17:38:33.758Z,2.30
2022-08-22T17:41:40.947Z,2.10
2022-08-22T17:44:23.333Z,1.50
2022-08-22T17:47:08.150Z,2.10
2022-08-22T17:49:45.267Z,1.60
2022-08-22T17:52:40.173Z,2.20
2022-08-22T17:55:15.929Z,0.90
2022-08-22T17:57:56.626Z,1.40
2022-08-22T18:00:40.048Z,1.60
2022-08-22T18:03:25.851Z,1.30
2022-08-22T18:06:24.334Z,1.20
2022-08-22T18:09:17.800Z,1.50
2022-08-22T18:14:24.917Z,1.70
2022-08-22T18:16:56.511Z,1.70
2022-08-22T18:19:58.662Z,1.30
2022-08-22T18:22:41.815Z,1.10
2022-08-22T18:25:20.055Z,1.60
2022-08-22T18:27:56.431Z,1.10
2022-08-22T18:30:53.758Z,2.00
2022-08-22T18:33:35.446Z,1.40
2022-08-22T18:36:18.763Z,1.50
2022-08-22T18:38:54.954Z,1.60
2022-08-22T18:41:39.299Z,1.50
2022-08-22T18:44:21.583Z,1.30
2022-08-22T18:46:53.243Z,1.30
2022-08-22T18:49:24.698Z,1.50
2022-08-22T18:52:06.319Z,1.30
2022-08-22T18:55:11.360Z,1.20
2022-08-22T18:58:06.543Z,1.30
2022-08-22T19:00:47.525Z,1.50
2022-08-22T19:03:48.662Z,1.00
2022-08-22T19:06:45.001Z,1.40
2022-08-22T19:09:38.251Z,1.50
2022-08-22T19:12:15.961Z,1.30
2022-08-22T19:15:24.221Z,1.50
2022-08-22T19:18:34.873Z,1.60
2022-08-22T19:21:41.506Z,1.60
2022-08-22T19:24:57.191Z,2.00
2022-08-22T19:27:31.111Z,2.20
2022-08-22T19:30:26.957Z,1.80
2022-08-22T19:32:59.577Z,1.90
2022-08-22T19:40:45.869Z,1.80
2022-08-22T19:43:31.454Z,1.70
2022-08-22T19:46:07.068Z,1.50
2022-08-22T19:48:50.625Z,1.80
2022-08-22T19:51:20.023Z,1.80
2022-08-22T19:54:21.066Z,2.10
2022-08-22T19:57:10.308Z,1.60
2022-08-22T20:00:01.213Z,1.60
2022-08-22T20:02:57.153Z,1.90
2022-08-22T20:05:44.908Z,2.30
2022-08-22T20:08:59.375Z,1.60
2022-08-22T20:11:51.176Z,1.90
2022-08-22T20:14:40.246Z,1.70
2022-08-22T20:17:28.003Z,2.00
2022-08-22T20:22:57.895Z,1.80
2022-08-22T20:25:42.086Z,1.90
2022-08-22T20:28:30.308Z,2.00
2022-08-22T20:31:02.464Z,1.80
2022-08-22T20:33:42.318Z,1.70
2022-08-22T20:36:27.647Z,1.70
2022-08-22T20:39:11.245Z,2.00
2022-08-22T20:41:44.043Z,2.50
2022-08-22T20:44:31.689Z,2.10
2022-08-22T20:47:11.488Z,2.20
2022-08-22T20:49:51.133Z,1.70
2022-08-22T20:52:22.911Z,2.30
2022-08-22T20:55:19.628Z,2.20
2022-08-22T20:57:59.654Z,1.60
2022-08-22T21:00:46.102Z,2.00
2022-08-22T21:03:41.800Z,2.10
2022-08-22T21:06:15.941Z,2.00
2022-08-22T21:08:47.995Z,2.30
2022-08-22T21:11:41.687Z,2.20
2022-08-22T21:14:26.642Z,2.80
2022-08-22T21:16:56.441Z,2.60
2022-08-22T21:19:30.881Z,2.60
2022-08-22T21:22:18.372Z,2.90
2022-08-22T21:24:48.351Z,2.40
2022-08-22T21:27:27.113Z,2.40
2022-08-22T21:29:58.578Z,2.30
2022-08-22T21:32:34.998Z,2.50
2022-08-22T21:35:07.891Z,2.80
2022-08-22T21:37:40.875Z,2.30
2022-08-22T21:40:20.552Z,2.50
2022-08-22T21:43:09.859Z,2.90
2022-08-22T21:45:39.768Z,2.70
2022-08-22T21:48:39.573Z,2.30
2022-08-22T21:51:29.159Z,2.20
2022-08-22T21:54:26.208Z,2.70
2022-08-22T21:57:17.685Z,2.80
2022-08-22T21:59:59.519Z,2.30
2022-08-22T22:02:31.126Z,3.10
2022-08-22T22:05:02.803Z,3.40
2022-08-22T22:07:32.408Z,2.40
2022-08-22T22:10:02.100Z,2.00
2022-08-22T22:12:32.187Z,2.50
2022-08-22T22:15:02.171Z,2.50
2022-08-22T22:17:31.539Z,2.80
2022-08-22T22:20:01.025Z,2.00
2022-08-22T22:22:31.098Z,2.70
2022-08-22T22:25:00.772Z,2.50
2022-08-22T22:27:30.191Z,3.20
2022-08-22T22:30:00.152Z,3.30
2022-08-22T22:32:29.815Z,2.90
2022-08-22T22:34:59.223Z,2.60
2022-08-22T22:37:29.633Z,3.40
2022-08-22T22:40:00.390Z,3.70
2022-08-22T22:42:37.891Z,3.10
2022-08-22T22:45:07.777Z,3.00
2022-08-22T22:47:37.517Z,2.60
2022-08-22T22:50:07.900Z,2.90
2022-08-22T22:52:45.815Z,3.80
2022-08-22T22:55:24.186Z,2.60
2022-08-22T22:57:58.973Z,2.60
